sensor_id;sensor_type;location;lat;lon;timestamp;P1;durP1;ratioP1;P2;durP2;ratioP2
1839;SDS011;920;48.944;9.148;2024-02-21T00:02:24;7.27;;;4.30;;
1839;SDS011;920;48.944;9.148;2024-02-21T00:04:51;8.67;;;4.40;;
1839;SDS011;920;48.944;9.148;2024-02-21T00:07:20;7.40;;;4.67;;
1839;SDS011;920;48.944;9.148;2024-02-21T00:09:47;8.23;;;4.83;;
1839;SDS011;920;48.944;9.148;2024-02-21T00:12:16;7.33;;;4.50;;
1839;SDS011;920;48.944;9.148;2024-02-21T00:14:43;8.67;;;5.03;;
1839;SDS011;920;48.944;9.148;2024-02-21T00:17:10;10.00;;;5.70;;
1839;SDS011;920;48.944;9.148;2024-02-21T00:19:37;7.33;;;4.53;;
1839;SDS011;920;48.944;9.148;2024-02-21T00:22:04;8.97;;;4.93;;
1839;SDS011;920;48.944;9.148;2024-02-21T00:24:31;7.70;;;3.90;;
1839;SDS011;920;48.944;9.148;2024-02-21T00:26:57;8.17;;;4.30;;
1839;SDS011;920;48.944;9.148;2024-02-21T00:29:25;7.63;;;4.20;;
1839;SDS011;920;48.944;9.148;2024-02-21T00:31:52;7.63;;;4.37;;
1839;SDS011;920;48.944;9.148;2024-02-21T00:34:19;7.83;;;5.23;;
1839;SDS011;920;48.944;9.148;2024-02-21T00:36:46;12.70;;;5.83;;
1839;SDS011;920;48.944;9.148;2024-02-21T00:39:12;9.73;;;5.37;;
1839;SDS011;920;48.944;9.148;2024-02-21T00:41:39;17.33;;;7.90;;
1839;SDS011;920;48.944;9.148;2024-02-21T00:44:06;16.07;;;8.90;;
1839;SDS011;920;48.944;9.148;2024-02-21T00:46:34;10.97;;;6.57;;
1839;SDS011;920;48.944;9.148;2024-02-21T00:49:03;11.30;;;6.20;;
1839;SDS011;920;48.944;9.148;2024-02-21T00:51:30;8.50;;;4.80;;
1839;SDS011;920;48.944;9.148;2024-02-21T00:53:57;6.20;;;4.33;;
1839;SDS011;920;48.944;9.148;2024-02-21T00:56:24;7.77;;;3.73;;
1839;SDS011;920;48.944;9.148;2024-02-21T00:58:50;7.93;;;4.83;;
1839;SDS011;920;48.944;9.148;2024-02-21T01:01:20;10.47;;;6.67;;
1839;SDS011;920;48.944;9.148;2024-02-21T01:03:50;13.77;;;8.40;;
1839;SDS011;920;48.944;9.148;2024-02-21T01:06:18;18.50;;;11.20;;
1839;SDS011;920;48.944;9.148;2024-02-21T01:08:45;15.43;;;8.43;;
1839;SDS011;920;48.944;9.148;2024-02-21T01:11:12;12.83;;;7.30;;
1839;SDS011;920;48.944;9.148;2024-02-21T01:13:39;10.90;;;7.03;;
1839;SDS011;920;48.944;9.148;2024-02-21T01:16:06;10.10;;;6.43;;
1839;SDS011;920;48.944;9.148;2024-02-21T01:18:33;7.30;;;4.50;;
1839;SDS011;920;48.944;9.148;2024-02-21T01:21:01;7.90;;;4.40;;
1839;SDS011;920;48.944;9.148;2024-02-21T01:23:32;6.40;;;4.17;;
1839;SDS011;920;48.944;9.148;2024-02-21T01:25:58;7.57;;;3.60;;
1839;SDS011;920;48.944;9.148;2024-02-21T01:28:25;7.43;;;3.70;;
1839;SDS011;920;48.944;9.148;2024-02-21T01:30:52;6.27;;;3.77;;
1839;SDS011;920;48.944;9.148;2024-02-21T01:33:19;6.80;;;3.57;;
1839;SDS011;920;48.944;9.148;2024-02-21T01:35:46;6.70;;;4.20;;
1839;SDS011;920;48.944;9.148;2024-02-21T01:38:17;5.67;;;3.50;;
1839;SDS011;920;48.944;9.148;2024-02-21T01:40:44;7.90;;;3.50;;
1839;SDS011;920;48.944;9.148;2024-02-21T01:43:17;4.93;;;3.23;;
1839;SDS011;920;48.944;9.148;2024-02-21T01:45:45;7.63;;;2.83;;
1839;SDS011;920;48.944;9.148;2024-02-21T01:48:14;6.60;;;3.30;;
1839;SDS011;920;48.944;9.148;2024-02-21T01:50:42;8.10;;;3.20;;
1839;SDS011;920;48.944;9.148;2024-02-21T01:53:08;6.73;;;3.37;;
1839;SDS011;920;48.944;9.148;2024-02-21T01:55:37;6.30;;;3.67;;
1839;SDS011;920;48.944;9.148;2024-02-21T01:58:04;5.57;;;3.33;;
1839;SDS011;920;48.944;9.148;2024-02-21T02:00:31;5.23;;;2.90;;
1839;SDS011;920;48.944;9.148;2024-02-21T02:02:58;7.07;;;3.77;;
1839;SDS011;920;48.944;9.148;2024-02-21T02:05:25;5.80;;;3.03;;
1839;SDS011;920;48.944;9.148;2024-02-21T02:07:52;5.33;;;2.90;;
1839;SDS011;920;48.944;9.148;2024-02-21T02:10:19;5.43;;;2.97;;
1839;SDS011;920;48.944;9.148;2024-02-21T02:12:47;8.50;;;3.13;;
1839;SDS011;920;48.944;9.148;2024-02-21T02:15:13;11.60;;;3.23;;
1839;SDS011;920;48.944;9.148;2024-02-21T02:17:40;4.90;;;3.30;;
1839;SDS011;920;48.944;9.148;2024-02-21T02:20:07;4.47;;;2.87;;
1839;SDS011;920;48.944;9.148;2024-02-21T02:22:34;3.80;;;2.53;;
1839;SDS011;920;48.944;9.148;2024-02-21T02:25:05;5.73;;;2.83;;
1839;SDS011;920;48.944;9.148;2024-02-21T02:27:32;5.33;;;3.17;;
1839;SDS011;920;48.944;9.148;2024-02-21T02:29:58;5.17;;;2.87;;
1839;SDS011;920;48.944;9.148;2024-02-21T02:32:25;6.43;;;3.33;;
1839;SDS011;920;48.944;9.148;2024-02-21T02:34:52;4.13;;;2.57;;
1839;SDS011;920;48.944;9.148;2024-02-21T02:37:19;7.80;;;3.07;;
1839;SDS011;920;48.944;9.148;2024-02-21T02:39:46;6.73;;;3.33;;
1839;SDS011;920;48.944;9.148;2024-02-21T02:42:15;9.20;;;3.23;;
1839;SDS011;920;48.944;9.148;2024-02-21T02:44:42;7.67;;;3.13;;
1839;SDS011;920;48.944;9.148;2024-02-21T02:47:09;7.27;;;3.13;;
1839;SDS011;920;48.944;9.148;2024-02-21T02:49:36;7.67;;;3.53;;
1839;SDS011;920;48.944;9.148;2024-02-21T02:52:03;5.90;;;3.30;;
1839;SDS011;920;48.944;9.148;2024-02-21T02:54:30;5.53;;;3.10;;
1839;SDS011;920;48.944;9.148;2024-02-21T02:56:57;7.30;;;2.90;;
1839;SDS011;920;48.944;9.148;2024-02-21T02:59:25;3.97;;;2.70;;
1839;SDS011;920;48.944;9.148;2024-02-21T03:01:52;4.30;;;2.97;;
1839;SDS011;920;48.944;9.148;2024-02-21T03:04:18;4.33;;;2.87;;
1839;SDS011;920;48.944;9.148;2024-02-21T03:06:45;6.93;;;3.63;;
1839;SDS011;920;48.944;9.148;2024-02-21T03:09:12;6.10;;;3.03;;
1839;SDS011;920;48.944;9.148;2024-02-21T03:11:40;4.73;;;2.87;;
1839;SDS011;920;48.944;9.148;2024-02-21T03:14:09;4.97;;;2.40;;
1839;SDS011;920;48.944;9.148;2024-02-21T03:16:37;4.27;;;2.60;;
1839;SDS011;920;48.944;9.148;2024-02-21T03:19:04;4.53;;;2.57;;
1839;SDS011;920;48.944;9.148;2024-02-21T03:21:31;5.27;;;2.97;;
1839;SDS011;920;48.944;9.148;2024-02-21T03:23:57;5.27;;;2.93;;
1839;SDS011;920;48.944;9.148;2024-02-21T03:26:24;4.27;;;2.50;;
1839;SDS011;920;48.944;9.148;2024-02-21T03:28:51;4.67;;;3.00;;
1839;SDS011;920;48.944;9.148;2024-02-21T03:31:17;6.30;;;3.60;;
1839;SDS011;920;48.944;9.148;2024-02-21T03:33:45;5.40;;;3.03;;
1839;SDS011;920;48.944;9.148;2024-02-21T03:36:13;5.77;;;2.77;;
1839;SDS011;920;48.944;9.148;2024-02-21T03:38:40;6.50;;;3.10;;
1839;SDS011;920;48.944;9.148;2024-02-21T03:41:07;5.53;;;2.60;;
1839;SDS011;920;48.944;9.148;2024-02-21T03:43:34;4.70;;;2.50;;
1839;SDS011;920;48.944;9.148;2024-02-21T03:46:01;4.07;;;2.60;;
1839;SDS011;920;48.944;9.148;2024-02-21T03:48:27;7.50;;;3.70;;
1839;SDS011;920;48.944;9.148;2024-02-21T03:50:55;16.70;;;7.00;;
1839;SDS011;920;48.944;9.148;2024-02-21T03:53:22;18.47;;;9.10;;
1839;SDS011;920;48.944;9.148;2024-02-21T03:55:49;12.03;;;7.03;;
1839;SDS011;920;48.944;9.148;2024-02-21T03:58:18;11.13;;;6.73;;
1839;SDS011;920;48.944;9.148;2024-02-21T04:00:45;10.60;;;5.50;;
1839;SDS011;920;48.944;9.148;2024-02-21T04:03:12;8.90;;;4.87;;
1839;SDS011;920;48.944;9.148;2024-02-21T04:05:38;5.63;;;3.23;;
1839;SDS011;920;48.944;9.148;2024-02-21T04:08:07;5.73;;;3.10;;
1839;SDS011;920;48.944;9.148;2024-02-21T04:10:34;6.70;;;2.90;;
1839;SDS011;920;48.944;9.148;2024-02-21T04:13:00;4.70;;;3.00;;
1839;SDS011;920;48.944;9.148;2024-02-21T04:15:27;6.03;;;2.70;;
1839;SDS011;920;48.944;9.148;2024-02-21T04:17:54;5.67;;;2.80;;
1839;SDS011;920;48.944;9.148;2024-02-21T04:20:21;3.93;;;2.40;;
1839;SDS011;920;48.944;9.148;2024-02-21T04:22:48;6.20;;;2.40;;
1839;SDS011;920;48.944;9.148;2024-02-21T04:25:16;5.30;;;3.17;;
1839;SDS011;920;48.944;9.148;2024-02-21T04:27:44;5.60;;;3.17;;
1839;SDS011;920;48.944;9.148;2024-02-21T04:30:11;6.70;;;2.83;;
1839;SDS011;920;48.944;9.148;2024-02-21T04:32:38;6.60;;;3.50;;
1839;SDS011;920;48.944;9.148;2024-02-21T04:35:05;7.43;;;2.77;;
1839;SDS011;920;48.944;9.148;2024-02-21T04:37:33;5.17;;;3.33;;
1839;SDS011;920;48.944;9.148;2024-02-21T04:40:00;6.93;;;3.17;;
1839;SDS011;920;48.944;9.148;2024-02-21T04:42:28;6.90;;;3.20;;
1839;SDS011;920;48.944;9.148;2024-02-21T04:44:55;6.10;;;3.20;;
1839;SDS011;920;48.944;9.148;2024-02-21T04:47:21;3.80;;;2.80;;
1839;SDS011;920;48.944;9.148;2024-02-21T04:49:50;5.77;;;3.17;;
1839;SDS011;920;48.944;9.148;2024-02-21T04:52:16;8.73;;;3.13;;
1839;SDS011;920;48.944;9.148;2024-02-21T04:54:43;11.03;;;2.80;;
1839;SDS011;920;48.944;9.148;2024-02-21T04:57:10;5.97;;;2.97;;
1839;SDS011;920;48.944;9.148;2024-02-21T04:59:43;9.00;;;3.70;;
1839;SDS011;920;48.944;9.148;2024-02-21T05:02:10;6.00;;;3.17;;
1839;SDS011;920;48.944;9.148;2024-02-21T05:04:37;7.63;;;4.20;;
1839;SDS011;920;48.944;9.148;2024-02-21T05:07:05;5.30;;;3.03;;
1839;SDS011;920;48.944;9.148;2024-02-21T05:09:32;6.40;;;3.00;;
1839;SDS011;920;48.944;9.148;2024-02-21T05:11:59;7.30;;;3.90;;
1839;SDS011;920;48.944;9.148;2024-02-21T05:14:26;5.00;;;3.00;;
1839;SDS011;920;48.944;9.148;2024-02-21T05:16:54;5.40;;;2.90;;
1839;SDS011;920;48.944;9.148;2024-02-21T05:19:21;6.03;;;3.27;;
1839;SDS011;920;48.944;9.148;2024-02-21T05:21:48;4.70;;;3.20;;
1839;SDS011;920;48.944;9.148;2024-02-21T05:24:15;4.53;;;2.97;;
1839;SDS011;920;48.944;9.148;2024-02-21T05:26:41;7.27;;;3.20;;
1839;SDS011;920;48.944;9.148;2024-02-21T05:29:08;4.93;;;3.07;;
1839;SDS011;920;48.944;9.148;2024-02-21T05:31:42;5.30;;;2.80;;
1839;SDS011;920;48.944;9.148;2024-02-21T05:34:23;5.83;;;3.07;;
1839;SDS011;920;48.944;9.148;2024-02-21T05:36:50;4.23;;;3.10;;
1839;SDS011;920;48.944;9.148;2024-02-21T05:39:17;8.93;;;3.43;;
1839;SDS011;920;48.944;9.148;2024-02-21T05:41:44;8.30;;;4.30;;
1839;SDS011;920;48.944;9.148;2024-02-21T05:44:12;7.93;;;3.30;;
1839;SDS011;920;48.944;9.148;2024-02-21T05:46:38;7.03;;;3.33;;
1839;SDS011;920;48.944;9.148;2024-02-21T05:49:06;8.27;;;5.30;;
1839;SDS011;920;48.944;9.148;2024-02-21T05:51:33;34.20;;;21.00;;
1839;SDS011;920;48.944;9.148;2024-02-21T05:54:00;38.53;;;27.60;;
1839;SDS011;920;48.944;9.148;2024-02-21T05:56:28;33.90;;;23.60;;
1839;SDS011;920;48.944;9.148;2024-02-21T05:58:54;25.03;;;16.70;;
1839;SDS011;920;48.944;9.148;2024-02-21T06:01:21;21.53;;;15.80;;
1839;SDS011;920;48.944;9.148;2024-02-21T06:03:48;22.70;;;18.70;;
1839;SDS011;920;48.944;9.148;2024-02-21T06:06:16;26.03;;;20.10;;
1839;SDS011;920;48.944;9.148;2024-02-21T06:08:43;19.87;;;17.17;;
1839;SDS011;920;48.944;9.148;2024-02-21T06:11:10;14.67;;;11.53;;
1839;SDS011;920;48.944;9.148;2024-02-21T06:13:38;15.83;;;8.83;;
1839;SDS011;920;48.944;9.148;2024-02-21T06:16:06;12.10;;;7.47;;
1839;SDS011;920;48.944;9.148;2024-02-21T06:18:35;10.10;;;5.90;;
1839;SDS011;920;48.944;9.148;2024-02-21T06:21:02;7.47;;;4.57;;
1839;SDS011;920;48.944;9.148;2024-02-21T06:23:31;5.90;;;3.27;;
1839;SDS011;920;48.944;9.148;2024-02-21T06:25:58;7.03;;;3.40;;
1839;SDS011;920;48.944;9.148;2024-02-21T06:28:24;7.67;;;3.27;;
1839;SDS011;920;48.944;9.148;2024-02-21T06:30:51;5.17;;;3.70;;
1839;SDS011;920;48.944;9.148;2024-02-21T06:33:18;4.23;;;3.00;;
1839;SDS011;920;48.944;9.148;2024-02-21T06:35:47;5.00;;;3.10;;
1839;SDS011;920;48.944;9.148;2024-02-21T06:38:17;5.87;;;3.70;;
1839;SDS011;920;48.944;9.148;2024-02-21T06:40:45;6.33;;;3.20;;
1839;SDS011;920;48.944;9.148;2024-02-21T06:43:16;7.07;;;3.50;;
1839;SDS011;920;48.944;9.148;2024-02-21T06:45:44;4.87;;;3.47;;
1839;SDS011;920;48.944;9.148;2024-02-21T06:48:12;5.87;;;4.50;;
1839;SDS011;920;48.944;9.148;2024-02-21T06:50:39;5.73;;;3.77;;
1839;SDS011;920;48.944;9.148;2024-02-21T06:53:06;11.43;;;6.93;;
1839;SDS011;920;48.944;9.148;2024-02-21T06:55:33;11.60;;;7.40;;
1839;SDS011;920;48.944;9.148;2024-02-21T06:58:01;9.10;;;5.73;;
1839;SDS011;920;48.944;9.148;2024-02-21T07:00:28;5.97;;;3.60;;
1839;SDS011;920;48.944;9.148;2024-02-21T07:02:58;7.10;;;3.97;;
1839;SDS011;920;48.944;9.148;2024-02-21T07:05:25;6.53;;;3.97;;
1839;SDS011;920;48.944;9.148;2024-02-21T07:07:51;7.03;;;4.13;;
1839;SDS011;920;48.944;9.148;2024-02-21T07:10:18;5.83;;;3.47;;
1839;SDS011;920;48.944;9.148;2024-02-21T07:12:45;7.60;;;3.90;;
1839;SDS011;920;48.944;9.148;2024-02-21T07:15:13;8.70;;;4.67;;
1839;SDS011;920;48.944;9.148;2024-02-21T07:17:40;7.67;;;4.10;;
1839;SDS011;920;48.944;9.148;2024-02-21T07:20:07;6.77;;;3.53;;
1839;SDS011;920;48.944;9.148;2024-02-21T07:22:34;6.77;;;3.17;;
1839;SDS011;920;48.944;9.148;2024-02-21T07:25:01;5.97;;;4.07;;
1839;SDS011;920;48.944;9.148;2024-02-21T07:27:28;7.40;;;3.90;;
1839;SDS011;920;48.944;9.148;2024-02-21T07:29:56;6.50;;;3.57;;
1839;SDS011;920;48.944;9.148;2024-02-21T07:32:24;4.10;;;3.00;;
1839;SDS011;920;48.944;9.148;2024-02-21T07:34:51;5.37;;;2.87;;
1839;SDS011;920;48.944;9.148;2024-02-21T07:37:18;5.20;;;3.10;;
1839;SDS011;920;48.944;9.148;2024-02-21T07:39:44;6.70;;;3.10;;
1839;SDS011;920;48.944;9.148;2024-02-21T07:42:11;9.87;;;6.23;;
1839;SDS011;920;48.944;9.148;2024-02-21T07:44:38;8.43;;;4.77;;
1839;SDS011;920;48.944;9.148;2024-02-21T07:47:04;6.30;;;4.17;;
1839;SDS011;920;48.944;9.148;2024-02-21T07:49:40;7.97;;;3.90;;
1839;SDS011;920;48.944;9.148;2024-02-21T07:52:07;5.43;;;3.33;;
1839;SDS011;920;48.944;9.148;2024-02-21T07:54:34;7.47;;;3.10;;
1839;SDS011;920;48.944;9.148;2024-02-21T07:57:00;4.87;;;2.90;;
1839;SDS011;920;48.944;9.148;2024-02-21T07:59:28;6.83;;;3.20;;
1839;SDS011;920;48.944;9.148;2024-02-21T08:01:56;4.60;;;2.37;;
1839;SDS011;920;48.944;9.148;2024-02-21T08:04:23;4.33;;;2.70;;
1839;SDS011;920;48.944;9.148;2024-02-21T08:06:52;4.53;;;2.60;;
1839;SDS011;920;48.944;9.148;2024-02-21T08:09:20;4.90;;;2.47;;
1839;SDS011;920;48.944;9.148;2024-02-21T08:11:48;5.70;;;3.17;;
1839;SDS011;920;48.944;9.148;2024-02-21T08:14:15;8.00;;;3.77;;
1839;SDS011;920;48.944;9.148;2024-02-21T08:16:42;9.20;;;3.70;;
1839;SDS011;920;48.944;9.148;2024-02-21T08:19:09;5.73;;;3.17;;
1839;SDS011;920;48.944;9.148;2024-02-21T08:21:35;6.17;;;3.10;;
1839;SDS011;920;48.944;9.148;2024-02-21T08:24:04;5.73;;;2.60;;
1839;SDS011;920;48.944;9.148;2024-02-21T08:26:31;5.70;;;3.27;;
1839;SDS011;920;48.944;9.148;2024-02-21T08:28:57;4.47;;;2.70;;
1839;SDS011;920;48.944;9.148;2024-02-21T08:31:25;5.73;;;2.77;;
1839;SDS011;920;48.944;9.148;2024-02-21T08:33:56;5.40;;;3.00;;
1839;SDS011;920;48.944;9.148;2024-02-21T08:36:27;4.30;;;2.80;;
1839;SDS011;920;48.944;9.148;2024-02-21T08:38:54;4.30;;;2.67;;
1839;SDS011;920;48.944;9.148;2024-02-21T08:41:22;10.70;;;4.03;;
1839;SDS011;920;48.944;9.148;2024-02-21T08:43:49;5.27;;;3.10;;
1839;SDS011;920;48.944;9.148;2024-02-21T08:46:16;6.90;;;2.70;;
1839;SDS011;920;48.944;9.148;2024-02-21T08:48:43;7.50;;;3.13;;
1839;SDS011;920;48.944;9.148;2024-02-21T08:51:11;6.03;;;3.30;;
1839;SDS011;920;48.944;9.148;2024-02-21T08:53:38;5.13;;;2.37;;
1839;SDS011;920;48.944;9.148;2024-02-21T08:56:05;5.37;;;2.73;;
1839;SDS011;920;48.944;9.148;2024-02-21T08:58:34;5.60;;;2.70;;
1839;SDS011;920;48.944;9.148;2024-02-21T09:01:02;5.13;;;2.73;;
1839;SDS011;920;48.944;9.148;2024-02-21T09:03:31;5.80;;;2.60;;
1839;SDS011;920;48.944;9.148;2024-02-21T09:05:58;7.10;;;2.60;;
1839;SDS011;920;48.944;9.148;2024-02-21T09:08:24;3.93;;;2.40;;
1839;SDS011;920;48.944;9.148;2024-02-21T09:10:51;3.90;;;1.90;;
1839;SDS011;920;48.944;9.148;2024-02-21T09:13:18;4.97;;;2.27;;
1839;SDS011;920;48.944;9.148;2024-02-21T09:15:46;9.70;;;2.53;;
1839;SDS011;920;48.944;9.148;2024-02-21T09:18:13;4.40;;;2.27;;
1839;SDS011;920;48.944;9.148;2024-02-21T09:20:40;8.67;;;2.33;;
1839;SDS011;920;48.944;9.148;2024-02-21T09:23:07;4.67;;;2.17;;
1839;SDS011;920;48.944;9.148;2024-02-21T09:25:34;5.10;;;2.07;;
1839;SDS011;920;48.944;9.148;2024-02-21T09:28:01;4.27;;;1.93;;
1839;SDS011;920;48.944;9.148;2024-02-21T09:30:28;7.27;;;2.50;;
1839;SDS011;920;48.944;9.148;2024-02-21T09:32:57;4.77;;;2.00;;
1839;SDS011;920;48.944;9.148;2024-02-21T09:35:25;4.77;;;2.10;;
1839;SDS011;920;48.944;9.148;2024-02-21T09:37:53;4.50;;;2.00;;
1839;SDS011;920;48.944;9.148;2024-02-21T09:40:20;4.30;;;1.83;;
1839;SDS011;920;48.944;9.148;2024-02-21T09:42:47;4.80;;;2.00;;
1839;SDS011;920;48.944;9.148;2024-02-21T09:45:15;7.17;;;2.20;;
1839;SDS011;920;48.944;9.148;2024-02-21T09:47:50;3.43;;;1.70;;
1839;SDS011;920;48.944;9.148;2024-02-21T09:50:23;3.80;;;1.90;;
1839;SDS011;920;48.944;9.148;2024-02-21T09:52:51;4.87;;;2.10;;
1839;SDS011;920;48.944;9.148;2024-02-21T09:55:19;3.67;;;2.20;;
1839;SDS011;920;48.944;9.148;2024-02-21T09:57:46;5.37;;;2.40;;
1839;SDS011;920;48.944;9.148;2024-02-21T10:00:13;4.60;;;2.03;;
1839;SDS011;920;48.944;9.148;2024-02-21T10:02:46;5.70;;;2.30;;
1839;SDS011;920;48.944;9.148;2024-02-21T10:05:13;5.10;;;2.30;;
1839;SDS011;920;48.944;9.148;2024-02-21T10:07:41;6.03;;;1.93;;
1839;SDS011;920;48.944;9.148;2024-02-21T10:10:09;3.67;;;1.57;;
1839;SDS011;920;48.944;9.148;2024-02-21T10:12:36;4.50;;;1.80;;
1839;SDS011;920;48.944;9.148;2024-02-21T10:15:03;5.67;;;1.83;;
1839;SDS011;920;48.944;9.148;2024-02-21T10:17:31;3.73;;;1.50;;
1839;SDS011;920;48.944;9.148;2024-02-21T10:20:06;3.90;;;2.27;;
1839;SDS011;920;48.944;9.148;2024-02-21T10:22:34;3.07;;;1.60;;
1839;SDS011;920;48.944;9.148;2024-02-21T10:25:08;5.00;;;2.03;;
1839;SDS011;920;48.944;9.148;2024-02-21T10:27:34;3.80;;;1.83;;
1839;SDS011;920;48.944;9.148;2024-02-21T10:30:02;5.60;;;2.10;;
1839;SDS011;920;48.944;9.148;2024-02-21T10:32:30;3.73;;;1.53;;
1839;SDS011;920;48.944;9.148;2024-02-21T10:35:00;5.73;;;2.00;;
1839;SDS011;920;48.944;9.148;2024-02-21T10:37:29;6.00;;;1.90;;
1839;SDS011;920;48.944;9.148;2024-02-21T10:39:56;4.57;;;1.90;;
1839;SDS011;920;48.944;9.148;2024-02-21T10:42:25;4.17;;;1.77;;
1839;SDS011;920;48.944;9.148;2024-02-21T10:44:54;4.20;;;2.10;;
1839;SDS011;920;48.944;9.148;2024-02-21T10:47:25;4.57;;;2.20;;
1839;SDS011;920;48.944;9.148;2024-02-21T10:49:55;6.10;;;2.20;;
1839;SDS011;920;48.944;9.148;2024-02-21T10:52:27;3.30;;;2.00;;
1839;SDS011;920;48.944;9.148;2024-02-21T10:55:03;4.07;;;1.97;;
1839;SDS011;920;48.944;9.148;2024-02-21T10:57:32;5.13;;;2.03;;
1839;SDS011;920;48.944;9.148;2024-02-21T10:59:59;4.70;;;2.20;;
1839;SDS011;920;48.944;9.148;2024-02-21T11:02:26;3.47;;;1.60;;
1839;SDS011;920;48.944;9.148;2024-02-21T11:04:55;5.30;;;2.03;;
1839;SDS011;920;48.944;9.148;2024-02-21T11:07:23;5.67;;;2.27;;
1839;SDS011;920;48.944;9.148;2024-02-21T11:09:50;4.40;;;1.90;;
1839;SDS011;920;48.944;9.148;2024-02-21T11:12:20;5.50;;;1.87;;
1839;SDS011;920;48.944;9.148;2024-02-21T11:14:48;3.53;;;1.73;;
1839;SDS011;920;48.944;9.148;2024-02-21T11:17:15;7.10;;;1.97;;
1839;SDS011;920;48.944;9.148;2024-02-21T11:19:42;5.10;;;1.67;;
1839;SDS011;920;48.944;9.148;2024-02-21T11:22:14;4.87;;;2.00;;
1839;SDS011;920;48.944;9.148;2024-02-21T11:24:41;3.20;;;1.40;;
1839;SDS011;920;48.944;9.148;2024-02-21T11:27:09;5.27;;;1.80;;
1839;SDS011;920;48.944;9.148;2024-02-21T11:29:42;5.23;;;1.70;;
1839;SDS011;920;48.944;9.148;2024-02-21T11:32:11;6.03;;;1.73;;
1839;SDS011;920;48.944;9.148;2024-02-21T11:34:37;6.57;;;2.23;;
1839;SDS011;920;48.944;9.148;2024-02-21T11:37:12;28.43;;;23.60;;
1839;SDS011;920;48.944;9.148;2024-02-21T11:39:41;21.10;;;16.37;;
1839;SDS011;920;48.944;9.148;2024-02-21T11:42:08;9.20;;;6.50;;
1839;SDS011;920;48.944;9.148;2024-02-21T11:44:36;12.90;;;10.40;;
1839;SDS011;920;48.944;9.148;2024-02-21T11:47:05;7.43;;;5.67;;
1839;SDS011;920;48.944;9.148;2024-02-21T11:49:35;5.87;;;3.27;;
1839;SDS011;920;48.944;9.148;2024-02-21T11:52:03;4.27;;;2.90;;
1839;SDS011;920;48.944;9.148;2024-02-21T11:54:30;4.37;;;2.10;;
1839;SDS011;920;48.944;9.148;2024-02-21T11:56:57;4.00;;;2.20;;
1839;SDS011;920;48.944;9.148;2024-02-21T11:59:24;4.53;;;2.27;;
1839;SDS011;920;48.944;9.148;2024-02-21T12:01:52;4.43;;;1.77;;
1839;SDS011;920;48.944;9.148;2024-02-21T12:04:19;3.97;;;1.80;;
1839;SDS011;920;48.944;9.148;2024-02-21T12:06:50;3.47;;;1.63;;
1839;SDS011;920;48.944;9.148;2024-02-21T12:09:19;5.77;;;2.80;;
1839;SDS011;920;48.944;9.148;2024-02-21T12:11:46;6.03;;;1.80;;
1839;SDS011;920;48.944;9.148;2024-02-21T12:14:24;5.63;;;1.87;;
1839;SDS011;920;48.944;9.148;2024-02-21T12:16:51;3.80;;;1.90;;
1839;SDS011;920;48.944;9.148;2024-02-21T12:19:18;4.13;;;1.70;;
1839;SDS011;920;48.944;9.148;2024-02-21T12:21:45;4.43;;;1.70;;
1839;SDS011;920;48.944;9.148;2024-02-21T12:24:13;5.47;;;1.93;;
1839;SDS011;920;48.944;9.148;2024-02-21T12:26:41;3.90;;;1.90;;
1839;SDS011;920;48.944;9.148;2024-02-21T12:29:08;3.80;;;1.73;;
1839;SDS011;920;48.944;9.148;2024-02-21T12:31:35;5.53;;;2.10;;
1839;SDS011;920;48.944;9.148;2024-02-21T12:34:02;3.70;;;1.70;;
1839;SDS011;920;48.944;9.148;2024-02-21T12:36:29;4.10;;;1.63;;
1839;SDS011;920;48.944;9.148;2024-02-21T12:38:56;6.03;;;2.13;;
1839;SDS011;920;48.944;9.148;2024-02-21T12:41:24;4.07;;;1.90;;
1839;SDS011;920;48.944;9.148;2024-02-21T12:43:52;3.70;;;1.37;;
1839;SDS011;920;48.944;9.148;2024-02-21T12:46:19;4.90;;;1.80;;
1839;SDS011;920;48.944;9.148;2024-02-21T12:48:46;3.70;;;1.80;;
1839;SDS011;920;48.944;9.148;2024-02-21T12:51:12;4.37;;;2.10;;
1839;SDS011;920;48.944;9.148;2024-02-21T12:53:40;5.00;;;1.77;;
1839;SDS011;920;48.944;9.148;2024-02-21T12:56:07;5.60;;;1.73;;
1839;SDS011;920;48.944;9.148;2024-02-21T12:58:35;3.27;;;1.80;;
1839;SDS011;920;48.944;9.148;2024-02-21T13:01:02;6.83;;;2.30;;
1839;SDS011;920;48.944;9.148;2024-02-21T13:03:29;4.67;;;2.13;;
1839;SDS011;920;48.944;9.148;2024-02-21T13:05:56;3.90;;;1.93;;
1839;SDS011;920;48.944;9.148;2024-02-21T13:08:24;4.43;;;1.97;;
1839;SDS011;920;48.944;9.148;2024-02-21T13:10:51;3.53;;;1.90;;
1839;SDS011;920;48.944;9.148;2024-02-21T13:13:18;3.30;;;1.73;;
1839;SDS011;920;48.944;9.148;2024-02-21T13:15:46;5.07;;;2.10;;
1839;SDS011;920;48.944;9.148;2024-02-21T13:18:13;3.67;;;1.70;;
1839;SDS011;920;48.944;9.148;2024-02-21T13:20:39;4.10;;;1.90;;
1839;SDS011;920;48.944;9.148;2024-02-21T13:23:06;3.97;;;2.37;;
1839;SDS011;920;48.944;9.148;2024-02-21T13:25:33;5.10;;;2.10;;
1839;SDS011;920;48.944;9.148;2024-02-21T13:28:00;4.00;;;1.83;;
1839;SDS011;920;48.944;9.148;2024-02-21T13:30:27;3.57;;;1.67;;
1839;SDS011;920;48.944;9.148;2024-02-21T13:32:55;3.70;;;1.90;;
1839;SDS011;920;48.944;9.148;2024-02-21T13:35:22;3.80;;;2.57;;
1839;SDS011;920;48.944;9.148;2024-02-21T13:37:48;5.57;;;2.77;;
1839;SDS011;920;48.944;9.148;2024-02-21T13:40:15;5.13;;;2.30;;
1839;SDS011;920;48.944;9.148;2024-02-21T13:42:42;5.43;;;3.73;;
1839;SDS011;920;48.944;9.148;2024-02-21T13:45:09;5.87;;;2.73;;
1839;SDS011;920;48.944;9.148;2024-02-21T13:47:36;4.77;;;2.30;;
1839;SDS011;920;48.944;9.148;2024-02-21T13:50:05;4.70;;;1.90;;
1839;SDS011;920;48.944;9.148;2024-02-21T13:52:35;4.47;;;1.70;;
1839;SDS011;920;48.944;9.148;2024-02-21T13:55:02;3.53;;;1.80;;
1839;SDS011;920;48.944;9.148;2024-02-21T13:57:29;5.63;;;2.40;;
1839;SDS011;920;48.944;9.148;2024-02-21T13:59:56;5.43;;;1.53;;
1839;SDS011;920;48.944;9.148;2024-02-21T14:02:22;3.77;;;1.80;;
1839;SDS011;920;48.944;9.148;2024-02-21T14:04:49;5.90;;;2.37;;
1839;SDS011;920;48.944;9.148;2024-02-21T14:07:17;4.30;;;2.30;;
1839;SDS011;920;48.944;9.148;2024-02-21T14:09:44;5.47;;;1.90;;
1839;SDS011;920;48.944;9.148;2024-02-21T14:12:11;6.93;;;2.60;;
1839;SDS011;920;48.944;9.148;2024-02-21T14:14:37;4.77;;;2.07;;
1839;SDS011;920;48.944;9.148;2024-02-21T14:17:04;5.50;;;2.80;;
1839;SDS011;920;48.944;9.148;2024-02-21T14:19:31;5.03;;;2.23;;
1839;SDS011;920;48.944;9.148;2024-02-21T14:21:57;4.93;;;2.30;;
1839;SDS011;920;48.944;9.148;2024-02-21T14:24:26;5.20;;;2.60;;
1839;SDS011;920;48.944;9.148;2024-02-21T14:26:53;3.83;;;2.40;;
1839;SDS011;920;48.944;9.148;2024-02-21T14:29:20;5.30;;;2.20;;
1839;SDS011;920;48.944;9.148;2024-02-21T14:31:47;4.53;;;1.97;;
1839;SDS011;920;48.944;9.148;2024-02-21T14:34:13;5.53;;;1.90;;
1839;SDS011;920;48.944;9.148;2024-02-21T14:36:40;5.50;;;2.30;;
1839;SDS011;920;48.944;9.148;2024-02-21T14:39:07;4.30;;;2.20;;
1839;SDS011;920;48.944;9.148;2024-02-21T14:41:35;6.97;;;2.10;;
1839;SDS011;920;48.944;9.148;2024-02-21T14:44:02;6.70;;;2.10;;
1839;SDS011;920;48.944;9.148;2024-02-21T14:46:29;4.00;;;1.87;;
1839;SDS011;920;48.944;9.148;2024-02-21T14:48:56;3.40;;;1.57;;
1839;SDS011;920;48.944;9.148;2024-02-21T14:51:22;5.07;;;2.00;;
1839;SDS011;920;48.944;9.148;2024-02-21T14:53:49;7.37;;;2.13;;
1839;SDS011;920;48.944;9.148;2024-02-21T14:56:16;5.50;;;1.70;;
1839;SDS011;920;48.944;9.148;2024-02-21T14:58:44;4.30;;;2.50;;
1839;SDS011;920;48.944;9.148;2024-02-21T15:01:12;3.53;;;1.90;;
1839;SDS011;920;48.944;9.148;2024-02-21T15:03:39;3.93;;;1.80;;
1839;SDS011;920;48.944;9.148;2024-02-21T15:06:06;3.63;;;2.00;;
1839;SDS011;920;48.944;9.148;2024-02-21T15:08:32;5.70;;;2.60;;
1839;SDS011;920;48.944;9.148;2024-02-21T15:11:01;3.83;;;2.03;;
1839;SDS011;920;48.944;9.148;2024-02-21T15:13:28;5.50;;;2.10;;
1839;SDS011;920;48.944;9.148;2024-02-21T15:15:57;6.73;;;2.10;;
1839;SDS011;920;48.944;9.148;2024-02-21T15:18:23;6.10;;;2.60;;
1839;SDS011;920;48.944;9.148;2024-02-21T15:20:50;3.50;;;2.20;;
1839;SDS011;920;48.944;9.148;2024-02-21T15:23:17;4.30;;;1.97;;
1839;SDS011;920;48.944;9.148;2024-02-21T15:25:45;5.10;;;1.90;;
1839;SDS011;920;48.944;9.148;2024-02-21T15:28:12;5.60;;;2.00;;
1839;SDS011;920;48.944;9.148;2024-02-21T15:30:39;3.87;;;2.13;;